Akıncı Air Base

LTAE · 安卡拉省, 土耳其

罗盘
风向 的 风向 010° Akıncı Air Base 3/21
风: 5 kt, 2 beaufort

5 kt

2 kt
改变
0 ft 2.000 4.000 6.000 8.000 10.000
Cloud Cloud
FEW 4.000
Cloud Cloud Cloud Cloud
SCT 10.000
METAR LTAE 032250Z 01005KT 9999 FEW040 SCT100 04/01 Q1014 NOSIG RMK RWY21 36006KT

METAR Akıncı Air Base - LTAE

Akıncı Air Base是,土耳其中的中型机场。 该机场位于纬度40,07890和经度32,56560。 该机场有一条跑道: 3/21. 本场的ICAO机场代码为LTAE。 机场在Ankara FIR中。

该航空气象观测是针对Akıncı Air Base在2024年3月4日 01:50, 当地时间进行的。

机场观察

风向为010°,速度为5 kt。

可见度为10 km 或者更多。

有几云在4.000 ft的高度 和 疏云,零星散落的云朵在10.000 ft的高度。 没有观察到天花板。

温度为4 °C,阵风为0 °C。 露点为1 °C,相对湿度为81%。 海平面上的气压为1014 hPa (QNH)。

白天

今天,太阳从07:19升起,在18:43降落。 这适用于Akıncı Air Base,世界夏令时可能有所不同。 当地时间与世界标准时间之间的时差为+3 小时。 当前,没有夏令时有效。

公司介绍

我们没有关于这个机场的公司信息。

体会

到Vliegles.nl去找飞行课程,跳伞和其他飞行体验。 浏览页面,了解Akıncı Air Base附近所有可用的活动。 你也可以使用搜索功能来寻找你所在地附近的特定飞行课程、跳伞或其他飞行体验。

跑道

Id 标题 侧风 逆风 侧风 %
3/21 033°-213° 2 kt 5 kt 39 %

逆风成分最大的方向会被突出显示,并用于横风计算。 这并不一定意味着这个方向在使用。

乌云

4.000 ft FEW 几云
10.000 ft SCT 疏云,零星散落的云朵

温度 & 天气

温度 4 °C
露点 1 °C
相对湿度 81%
风寒 0 °C
Kp-index 4 (0-9)

评论

RWY21 36006KT

白天

日出
07:19 (5:01)
中午
13:01
日落
18:43

小工具

你想在你的网站上有一个关于Akıncı Air Base的当前航空天气(METAR)的小部件吗?

显示HTML代码
?>